• Join FlightAware (Why Join?)
  • Login
  • US Flag 
07:04AM EDT


 

Airport Tracker/Info


-or-


 

Live Flight TrackerFlight Track Log ✈ SLI2111 ✈ 24-Aug-2013 ✈ MMCL / CUL - MMMY / MTY

Flight Track Log - Related Links

Times and Time Zones

All times are in EDT time to prevent confusion due to time zone crossing. See the SLI2111 flight status page for this flight to view local times or setup timezone preferences in your user account.

Time Position Orientation Groundspeed Altitude Reporting Facility
EDT Latitude Longitude Course Direction KTS MPH feet Rate Location/Type
11:15AM 24.8154 -107.1617 80° East  Level Estimated
11:16AM 24.8323 -107.0572 80° East  Level Estimated
11:17AM 24.8490 -106.9528 80° East  Level Estimated
11:18AM 24.8657 -106.8483 80° East  Level Estimated
11:19AM 24.8823 -106.7438 80° East  Level Estimated
11:20AM 24.8988 -106.6393 80° East  Level Estimated
11:21AM 24.9152 -106.5348 80° East  Level Estimated
11:22AM 24.9316 -106.4302 80° East  Level Estimated
11:23AM 24.9479 -106.3256 80° East  Level Estimated
11:24AM 24.9642 -106.2209 80° East  Level Estimated
11:25AM 24.9803 -106.1162 80° East  Level Estimated
11:26AM 24.9964 -106.0116 80° East  Level Estimated
11:27AM 25.0124 -105.9068 80° East  Level Estimated
11:28AM 25.0284 -105.8021 80° East  Level Estimated
11:29AM 25.0442 -105.6973 80° East  Level Estimated
11:30AM 25.0600 -105.5925 81° East  Level Estimated
11:31AM 25.0757 -105.4877 81° East  Level Estimated
11:32AM 25.0914 -105.3828 81° East  Level Estimated
11:33AM 25.1070 -105.2779 81° East  Level Estimated
11:34AM 25.1225 -105.1730 81° East  Level Estimated
11:35AM 25.1379 -105.0681 81° East  Level Estimated
11:36AM 25.1532 -104.9631 81° East  Level Estimated
11:37AM 25.1685 -104.8581 81° East  Level Estimated
11:38AM 25.1837 -104.7531 81° East  Level Estimated
11:39AM 25.1989 -104.6481 81° East  Level Estimated
11:40AM 25.2139 -104.5430 81° East  Level Estimated
11:41AM 25.2289 -104.4379 81° East  Level Estimated
11:42AM 25.2438 -104.3328 81° East  Level Estimated
11:43AM 25.2586 -104.2277 81° East  Level Estimated
11:44AM 25.2734 -104.1225 81° East  Level Estimated
11:45AM 25.2881 -104.0173 81° East  Level Estimated
11:46AM 25.3027 -103.9121 81° East  Level Estimated
11:47AM 25.3172 -103.8068 81° East  Level Estimated
11:48AM 25.3317 -103.7016 81° East  Level Estimated
11:49AM 25.3461 -103.5963 81° East  Level Estimated
11:50AM 25.3604 -103.4910 81° East  Level Estimated
11:51AM 25.3746 -103.3856 81° East  Level Estimated
11:52AM 25.3888 -103.2802 82° East  Level Estimated
11:53AM 25.4028 -103.1748 82° East  Level Estimated
11:54AM 25.4168 -103.0694 82° East  Level Estimated
11:55AM 25.4308 -102.9640 82° East  Level Estimated
11:56AM 25.4446 -102.8585 82° East  Level Estimated
11:57AM 25.4584 -102.7530 82° East  Level Estimated
11:58AM 25.4721 -102.6475 82° East  Level Estimated
11:59AM 25.4858 -102.5419 82° East  Level Estimated
12:00PM 25.4993 -102.4364 82° East  Level Estimated
12:01PM 25.5128 -102.3308 82° East  Level Estimated
12:02PM 25.5262 -102.2252 82° East  Level Estimated
12:03PM 25.5395 -102.1196 82° East  Level Estimated
12:04PM 25.5528 -102.0139 82° East  Level Estimated
12:05PM 25.5660 -101.9082 82° East  Level Estimated
12:06PM 25.5791 -101.8025 82° East  Level Estimated
12:07PM 25.5921 -101.6968 82° East  Level Estimated
12:08PM 25.6050 -101.5910 82° East  Level Estimated
12:09PM 25.6179 -101.4853 82° East  Level Estimated
12:10PM 25.6307 -101.3794 82° East  Level Estimated
12:11PM 25.6434 -101.2736 82° East  Level Estimated
12:12PM 25.6561 -101.1678 82° East  Level Estimated
12:13PM 25.6687 -101.0619 82° East  Level Estimated
12:14PM 25.6812 -100.9560 83° East  Level Estimated
12:15PM 25.6936 -100.8501 83° East  Level Estimated
12:16PM 25.7059 -100.7442 83° East  Level Estimated
12:17PM 25.7182 -100.6383 83° East  Level Estimated
12:18PM 25.7304 -100.5323 83° East  Level Estimated
12:19PM 25.7425 -100.4263 83° East  Level Estimated
12:20PM 25.7545 -100.3203 83° East  Level Estimated
12:21PM 25.7665 -100.2142 83° East  Level Estimated
12:22PM 25.7784 -100.1082 83° East  Level Estimated
12:23PM 25.7785 -100.1069 83° East  Level Estimated
12:24PM 25.7785 -100.1069 119° Southeast  Level Estimated
12:25PM 25.7785 -100.1069 119° Southeast  Level Estimated